Pagrindinis puslapis
METAR-TAF:

METAR-TAF

Oro uostai :

Vojens, Danija

platuma: 55-14N, ilguma: 009-16E, Aukštis: 43 m

Dabartinis oras

Ataskaita buvo paskelbta 12 minutes, ne 06:50 UTC
Vėjas 3 kt iš Pietų
Temperatūra 15°C
Drėgmė 82%
Slėgis 1020 hPa
Matomumas 10 km arba daugiau
Mažai debesys ne aukštis 1100 ft
Išsisklaidę debesys ne aukštis 2600 ft

METAR: EKSP 240650Z 18003KT 9999 FEW011 SCT026 15/12 Q1020 NOSIG

Laikas: 09:02 (07:02 UTC)

Prognozė

Ataskaita buvo paskelbta 2 valandos ir 0 minutes, ne 05:02 UTC
Prognozė galioja nuo 24 metu 06 UTC su 25 metu 06 UTC
Vėjas 3 kt nuo kintamojo kryptimis
Matomumas: 2200 m
Išsisklaidę debesys ne aukštis 2000 ft
rūkana
Tapsmas
nuo 24 metu 06 UTC su 24 metu 07 UTC
Matomumas 10 km arba daugiau
Laikinai
nuo 24 metu 23 UTC su 25 metu 06 UTC
Matomumas: 4000 m
rūkana,

TAF: EKSP 240502Z 2406/2506 VRB03KT 2200 BR SCT020 BECMG 2406/2407 9999 NSW TEMPO 2423/2506 4000 BR

Orai ataskaitas ir orų prognozės (METAR, TAF).

turimą stotys yra geltonos ir raudonos taškus žemėlapyje.

Perkelti pele per norėdami pamatyti stoties vardą.

Tada spustelėkite, norėdami matyti oro stebėjimo ir prognozės.

Norėdami pakeisti žemėlapį: spustelėkite ant žalios mygtukų su juodo kryžiaus žemyn,; žalią mygtuką su brūkšneliu, jei norite nutolinti; arba žalių rodyklių gretimoms žemėlapius.


METAR-TAF: